Time;durP1;ratioP1;P1;durP2;ratioP2;P2;SDS_P1;SDS_P2;PMS_P1;PMS_P2;Temp;Humidity;BMP_temperature;BMP_pressure;BME280_temperature;BME280_humidity;BME280_pressure;Samples;Min_cycle;Max_cycle;Signal;HPM_P1;HPM_P2
2024/04/12 00:01:08;;;;;;;29.90;19.17;;;;;;;12.57;100.00;103581.78;5339934;26;20529;-67
2024/04/12 00:03:36;;;;;;;27.73;18.80;;;;;;;12.61;100.00;103599.34;5351771;26;20712;-66
2024/04/12 00:06:05;;;;;;;25.40;18.73;;;;;;;12.60;100.00;103648.81;5343872;26;21430;-66
2024/04/12 00:08:32;;;;;;;25.53;17.20;;;;;;;12.61;100.00;103670.22;5322026;26;20488;-67
2024/04/12 00:11:03;;;;;;;25.70;17.20;;;;;;;12.47;100.00;103673.34;5333716;26;21376;-67
2024/04/12 00:13:32;;;;;;;28.07;18.00;;;;;;;12.58;100.00;103705.53;5333986;26;20537;-67
2024/04/12 00:16:03;;;;;;;24.87;16.93;;;;;;;12.61;100.00;103713.31;5342771;26;20542;-67
2024/04/12 00:18:29;;;;;;;27.23;16.50;;;;;;;12.55;100.00;103695.00;5327803;26;24044;-67
2024/04/12 00:20:58;;;;;;;26.30;16.63;;;;;;;12.42;100.00;103679.16;5321829;26;20465;-66
2024/04/12 00:23:33;;;;;;;25.60;16.43;;;;;;;11.94;100.00;103601.09;5350654;26;20638;-66
2024/04/12 00:26:00;;;;;;;27.87;16.70;;;;;;;12.39;100.00;103689.34;5325288;26;20871;-66
2024/04/12 00:28:33;;;;;;;29.30;17.10;;;;;;;12.59;100.00;103719.84;5345068;26;20525;-66
2024/04/12 00:31:02;;;;;;;26.73;14.93;;;;;;;12.57;100.00;103722.66;5346262;26;21123;-67
2024/04/12 00:33:32;;;;;;;27.40;16.27;;;;;;;12.58;100.00;103729.75;5324622;26;20551;-66
2024/04/12 00:36:11;;;;;;;24.40;15.70;;;;;;;12.50;100.00;103737.69;5345153;26;20532;-67
2024/04/12 00:38:41;;;;;;;32.67;18.57;;;;;;;12.49;100.00;103743.19;5327866;26;20476;-67
2024/04/12 00:41:18;;;;;;;27.93;17.57;;;;;;;12.04;100.00;103693.44;5330527;26;21533;-66
2024/04/12 00:43:47;;;;;;;28.97;17.77;;;;;;;12.49;100.00;103784.41;5342356;26;20837;-67
2024/04/12 00:46:25;;;;;;;34.03;18.80;;;;;;;12.28;100.00;103765.69;5343509;26;20583;-67
2024/04/12 00:49:06;;;;;;;35.07;20.60;;;;;;;12.46;100.00;103752.41;5344045;26;21092;-67
2024/04/12 00:51:34;;;;;;;34.00;19.60;;;;;;;12.53;100.00;103758.09;5348242;26;21231;-67
2024/04/12 00:54:02;;;;;;;36.33;20.40;;;;;;;12.39;100.00;103757.50;5355464;26;20887;-66
2024/04/12 00:56:27;;;;;;;32.90;19.80;;;;;;;12.52;100.00;103730.28;5354302;26;20480;-67
2024/04/12 00:58:55;;;;;;;41.40;21.30;;;;;;;12.39;100.00;103708.19;5356887;26;20629;-66
2024/04/12 01:01:22;;;;;;;36.20;21.80;;;;;;;12.52;100.00;103711.44;5351390;26;20367;-66
2024/04/12 01:03:49;;;;;;;36.43;21.00;;;;;;;12.55;100.00;103708.47;5379953;26;20609;-66
2024/04/12 01:06:30;;;;;;;34.33;19.90;;;;;;;12.37;100.00;103685.94;5347395;26;21206;-66
2024/04/12 01:09:10;;;;;;;34.63;20.90;;;;;;;12.40;100.00;103673.06;5351687;26;21932;-67
2024/04/12 01:11:36;;;;;;;33.00;19.50;;;;;;;12.56;100.00;103691.34;5339903;26;20472;-67
2024/04/12 01:14:02;;;;;;;34.20;20.53;;;;;;;12.62;100.00;103687.22;5358509;26;20480;-67
2024/04/12 01:16:29;;;;;;;33.47;20.80;;;;;;;12.54;100.00;103649.41;5349498;26;20601;-67
2024/04/12 01:18:55;;;;;;;33.90;19.70;;;;;;;12.33;100.00;103615.41;5355427;26;20246;-66
2024/04/12 01:21:23;;;;;;;34.13;21.27;;;;;;;12.48;100.00;103644.59;5348170;26;20842;-67
2024/04/12 01:23:53;;;;;;;34.40;21.07;;;;;;;12.53;100.00;103645.00;5356659;26;20518;-66
2024/04/12 01:26:27;;;;;;;31.77;20.67;;;;;;;12.50;100.00;103616.53;5354291;26;20560;-66
2024/04/12 01:28:56;;;;;;;31.57;19.87;;;;;;;12.31;100.00;103603.94;5352501;26;20472;-67
2024/04/12 01:31:21;;;;;;;31.43;19.23;;;;;;;12.62;100.00;103654.91;5355849;26;20537;-66
2024/04/12 01:33:50;;;;;;;33.30;17.73;;;;;;;12.57;100.00;103636.50;5353425;26;21060;-66
2024/04/12 01:36:21;;;;;;;32.00;17.90;;;;;;;12.56;100.00;103620.50;5344499;26;20286;-66
2024/04/12 01:38:57;;;;;;;30.20;17.83;;;;;;;12.38;100.00;103588.94;5348247;26;20532;-66
2024/04/12 01:41:31;;;;;;;29.87;17.57;;;;;;;12.56;100.00;103618.66;5353901;26;21490;-66
2024/04/12 01:44:04;;;;;;;32.30;19.37;;;;;;;12.61;100.00;103594.84;5358961;26;20460;-66
2024/04/12 01:46:34;;;;;;;30.23;17.27;;;;;;;12.34;100.00;103540.91;5379291;26;21148;-67
2024/04/12 01:49:00;;;;;;;31.30;18.00;;;;;;;12.48;100.00;103556.59;5357560;26;20468;-67
2024/04/12 01:51:26;;;;;;;30.37;18.50;;;;;;;12.32;100.00;103486.34;5352906;26;20579;-67
2024/04/12 01:53:55;;;;;;;31.03;17.40;;;;;;;12.50;100.00;103514.22;5327934;26;20500;-67
2024/04/12 01:56:22;;;;;;;31.50;17.77;;;;;;;12.51;100.00;103498.91;5340914;26;20484;-66
2024/04/12 01:58:49;;;;;;;27.27;16.83;;;;;;;12.56;100.00;103510.09;5353194;26;20472;-66
2024/04/12 02:01:19;;;;;;;26.73;17.07;;;;;;;12.53;100.00;103524.72;5343699;26;20608;-66
2024/04/12 02:03:45;;;;;;;32.30;16.10;;;;;;;12.34;100.00;103479.84;5346875;26;20481;-66
2024/04/12 02:06:15;;;;;;;28.53;17.53;;;;;;;12.53;100.00;103507.72;5353148;26;20592;-67
2024/04/12 02:08:42;;;;;;;27.13;15.93;;;;;;;12.66;100.00;103518.97;5350492;26;21034;-66
2024/04/12 02:11:08;;;;;;;27.77;16.43;;;;;;;12.62;100.00;103509.50;5351785;26;21125;-66
2024/04/12 02:13:36;;;;;;;31.73;16.63;;;;;;;12.65;100.00;103511.91;5351148;26;20741;-66
2024/04/12 02:16:05;;;;;;;33.70;18.33;;;;;;;12.48;100.00;103483.06;5349054;26;20464;-67
2024/04/12 02:18:35;;;;;;;29.57;16.30;;;;;;;12.70;100.00;103514.13;5353771;26;21357;-66
2024/04/12 02:21:05;;;;;;;31.27;18.00;;;;;;;12.68;100.00;103513.47;5354896;26;20525;-67
2024/04/12 02:23:34;;;;;;;31.40;17.67;;;;;;;12.74;100.00;103521.78;5380658;26;20822;-67
2024/04/12 02:26:01;;;;;;;28.00;17.53;;;;;;;12.60;100.00;103511.50;5353954;26;20484;-66
2024/04/12 02:28:27;;;;;;;27.60;16.87;;;;;;;12.81;100.00;103503.19;5354557;26;20472;-67
2024/04/12 02:30:54;;;;;;;28.00;16.70;;;;;;;12.79;100.00;103486.34;5350951;26;20595;-66
2024/04/12 02:33:31;;;;;;;25.23;15.90;;;;;;;12.78;100.00;103490.03;5348403;26;20480;-66
2024/04/12 02:36:18;;;;;;;29.83;16.73;;;;;;;12.79;100.00;103473.72;5348586;26;20464;-67
2024/04/12 02:38:49;;;;;;;29.03;16.53;;;;;;;12.77;100.00;103474.88;5350939;26;20518;-67
2024/04/12 02:41:15;;;;;;;26.40;16.37;;;;;;;12.89;100.00;103461.03;5354349;26;21021;-66
2024/04/12 02:43:41;;;;;;;25.50;15.37;;;;;;;12.96;100.00;103472.09;5363926;26;20599;-66
2024/04/12 02:46:10;;;;;;;33.73;18.63;;;;;;;12.73;100.00;103431.22;5364464;26;20243;-66
2024/04/12 02:48:40;;;;;;;27.80;18.50;;;;;;;12.89;100.00;103439.50;5350088;26;20518;-66
2024/04/12 02:51:06;;;;;;;27.90;18.40;;;;;;;12.99;100.00;103452.91;5358930;26;20603;-67
2024/04/12 02:53:35;;;;;;;29.30;18.40;;;;;;;12.74;100.00;103415.91;5355840;26;20602;-67
2024/04/12 02:56:08;;;;;;;28.50;18.73;;;;;;;12.91;100.00;103443.91;5338001;26;21065;-67
2024/04/12 02:58:44;;;;;;;31.73;18.00;;;;;;;12.92;100.00;103432.94;5355000;26;20467;-66
2024/04/12 03:01:10;;;;;;;35.33;18.83;;;;;;;12.84;100.00;103435.56;5337480;26;20986;-66
2024/04/12 03:03:55;;;;;;;33.63;20.33;;;;;;;12.80;100.00;103435.00;5346608;26;20531;-66
2024/04/12 03:06:23;;;;;;;40.30;19.90;;;;;;;12.87;100.00;103452.28;5357287;26;20468;-66
2024/04/12 03:08:51;;;;;;;31.60;19.90;;;;;;;12.83;100.00;103458.09;5354390;26;20869;-66
2024/04/12 03:11:22;;;;;;;38.60;22.27;;;;;;;12.75;100.00;103464.22;5355183;26;20547;-66
2024/04/12 03:13:51;;;;;;;33.03;20.70;;;;;;;12.83;100.00;103480.50;5350252;26;20475;-66
2024/04/12 03:16:18;;;;;;;32.93;20.00;;;;;;;12.40;100.00;103419.19;5347837;26;20488;-66
2024/04/12 03:18:46;;;;;;;36.17;22.30;;;;;;;12.85;100.00;103491.13;5351883;26;21161;-67
2024/04/12 03:21:15;;;;;;;36.63;21.00;;;;;;;12.78;100.00;103485.47;5353685;26;20531;-66
2024/04/12 03:23:43;;;;;;;38.63;23.53;;;;;;;12.57;100.00;103456.09;5355114;26;20592;-66
2024/04/12 03:26:23;;;;;;;35.47;21.80;;;;;;;12.75;100.00;103466.91;5381900;26;20476;-67
2024/04/12 03:28:50;;;;;;;35.87;22.40;;;;;;;12.73;100.00;103450.09;5353663;26;20468;-66
2024/04/12 03:31:17;;;;;;;36.97;22.30;;;;;;;12.81;100.00;103455.53;5345527;26;20476;-66
2024/04/12 03:33:43;;;;;;;38.80;22.60;;;;;;;12.86;100.00;103450.56;5357556;26;20464;-67
2024/04/12 03:37:16;;;;;;;33.50;21.63;;;;;;;12.83;100.00;103401.53;5348451;26;20585;-67
2024/04/12 03:41:53;;;;;;;32.77;21.23;;;;;;;12.89;100.00;103358.69;5355954;26;20985;-67
2024/04/12 03:44:19;;;;;;;32.97;20.97;;;;;;;12.91;100.00;103346.91;5389700;26;20532;-66
2024/04/12 03:46:49;;;;;;;32.50;21.07;;;;;;;12.93;100.00;103331.44;5366215;26;20484;-66
2024/04/12 03:49:16;;;;;;;27.20;19.47;;;;;;;12.76;100.00;103284.66;5350178;26;20482;-67
2024/04/12 03:51:44;;;;;;;29.43;18.97;;;;;;;12.84;100.00;103282.91;5354409;26;20891;-67
2024/04/12 03:54:21;;;;;;;30.17;20.07;;;;;;;12.96;100.00;103294.28;5357495;26;20473;-67
2024/04/12 03:57:05;;;;;;;29.13;20.33;;;;;;;13.02;100.00;103284.72;5358359;26;20532;-67
2024/04/12 03:59:34;;;;;;;26.93;19.00;;;;;;;13.02;100.00;103280.19;5355446;26;20480;-67
2024/04/12 04:02:06;;;;;;;26.33;18.17;;;;;;;13.10;100.00;103271.31;5338586;26;20531;-66
2024/04/12 04:04:37;;;;;;;36.63;19.67;;;;;;;13.05;100.00;103247.53;5346299;26;20476;-67
2024/04/12 04:07:04;;;;;;;26.70;19.73;;;;;;;13.02;100.00;103230.84;5362161;26;20457;-66
2024/04/12 04:09:29;;;;;;;33.27;20.80;;;;;;;12.31;100.00;103119.50;5359987;26;20483;-67
2024/04/12 04:11:55;;;;;;;32.93;21.40;;;;;;;13.08;100.00;103243.69;5361388;26;21199;-66
2024/04/12 04:14:25;;;;;;;27.77;19.50;;;;;;;13.07;100.00;103233.91;5358704;26;20258;-67
2024/04/12 04:16:55;;;;;;;30.77;20.53;;;;;;;12.94;100.00;103225.41;5355632;26;21367;-67
2024/04/12 04:19:31;;;;;;;34.40;21.80;;;;;;;12.63;100.00;103166.56;5353725;26;20477;-67
2024/04/12 04:22:04;;;;;;;31.03;21.20;;;;;;;12.96;100.00;103229.63;5361067;26;20475;-66
2024/04/12 04:24:33;;;;;;;29.43;20.33;;;;;;;13.04;100.00;103239.59;5364422;26;20523;-67
2024/04/12 04:27:00;;;;;;;32.47;21.50;;;;;;;13.00;100.00;103239.06;5360881;26;20973;-67
2024/04/12 04:29:26;;;;;;;33.27;21.80;;;;;;;12.88;100.00;103199.94;5362420;26;20540;-66
2024/04/12 04:31:52;;;;;;;33.00;22.40;;;;;;;12.95;100.00;103237.84;5357147;26;20526;-67
2024/04/12 04:34:20;;;;;;;30.20;21.03;;;;;;;13.00;100.00;103233.69;5348454;26;20276;-66
2024/04/12 04:36:49;;;;;;;30.40;21.60;;;;;;;12.80;100.00;103205.25;5344870;26;21097;-67
2024/04/12 04:39:21;;;;;;;34.20;21.97;;;;;;;12.92;100.00;103230.91;5351149;26;20567;-67
2024/04/12 04:41:52;;;;;;;30.00;22.40;;;;;;;13.13;100.00;103249.44;5351236;26;20586;-68
2024/04/12 04:44:18;;;;;;;29.10;21.20;;;;;;;13.09;100.00;103253.47;5350871;26;20467;-67
2024/04/12 04:46:49;;;;;;;31.93;21.53;;;;;;;12.38;100.00;103130.50;5352265;26;22556;-67
2024/04/12 04:49:16;;;;;;;28.03;21.00;;;;;;;13.10;100.00;103236.28;5345745;26;20517;-66
2024/04/12 04:51:43;;;;;;;26.80;17.97;;;;;;;13.02;100.00;103217.38;5349856;26;20537;-66
2024/04/12 04:54:13;;;;;;;28.00;18.17;;;;;;;13.03;100.00;103221.75;5355209;26;21056;-66
2024/04/12 04:56:43;;;;;;;23.80;16.17;;;;;;;12.99;100.00;103199.69;5348256;26;21585;-67
2024/04/12 04:59:18;;;;;;;23.43;17.10;;;;;;;13.11;100.00;103229.91;5351052;26;20483;-67
2024/04/12 05:01:50;;;;;;;23.57;16.20;;;;;;;12.93;100.00;103183.28;5352197;26;20532;-67
2024/04/12 05:04:20;;;;;;;21.40;15.40;;;;;;;12.71;100.00;103147.78;5342474;26;20460;-67
2024/04/12 05:06:52;;;;;;;21.37;16.03;;;;;;;13.12;100.00;103207.34;5338779;26;20480;-66
2024/04/12 05:09:19;;;;;;;21.67;15.80;;;;;;;12.93;100.00;103188.66;5345050;26;20468;-66
2024/04/12 05:11:45;;;;;;;21.23;15.33;;;;;;;13.07;100.00;103205.09;5381397;26;20492;-67
2024/04/12 05:14:41;;;;;;;20.83;15.37;;;;;;;13.18;100.00;103214.78;5331309;26;20583;-67
2024/04/12 05:17:03;;;;;;;24.37;15.83;;;;;;;13.13;100.00;103198.22;5343290;26;20887;-67
2024/04/12 05:19:40;;;;;;;22.47;16.60;;;;;;;12.61;100.00;103109.31;5339169;26;22242;-66
2024/04/12 05:22:07;;;;;;;20.90;15.37;;;;;;;13.02;100.00;103176.97;5342380;26;20469;-67
2024/04/12 05:24:35;;;;;;;21.13;15.97;;;;;;;13.15;100.00;103182.75;5355369;26;20537;-67
2024/04/12 05:27:04;;;;;;;21.47;15.97;;;;;;;12.93;100.00;103162.59;5348072;26;20477;-67
2024/04/12 05:29:30;;;;;;;23.97;14.43;;;;;;;13.19;100.00;103183.28;5352272;26;20528;-67
2024/04/12 05:31:58;;;;;;;31.07;15.70;;;;;;;13.21;100.00;103174.03;5351099;26;21165;-67
2024/04/12 05:34:28;;;;;;;21.47;15.80;;;;;;;13.15;100.00;103176.53;5348698;26;20469;-67
2024/04/12 05:37:03;;;;;;;24.00;17.63;;;;;;;13.03;100.00;103157.09;5355599;26;20980;-67
2024/04/12 05:39:33;;;;;;;23.50;17.47;;;;;;;13.17;100.00;103169.97;5355600;26;20833;-67
2024/04/12 05:42:05;;;;;;;23.60;17.40;;;;;;;13.23;100.00;103180.13;5354850;26;20514;-67
2024/04/12 05:44:31;;;;;;;27.63;18.80;;;;;;;13.20;100.00;103179.59;5352161;26;20901;-67
2024/04/12 05:46:57;;;;;;;26.90;18.33;;;;;;;13.16;100.00;103172.81;5355915;26;20476;-67
2024/04/12 05:49:22;;;;;;;21.73;17.10;;;;;;;13.23;100.00;103180.13;5349939;26;20551;-67
2024/04/12 05:51:49;;;;;;;25.30;17.67;;;;;;;13.05;100.00;103155.94;5341153;26;20833;-67
2024/04/12 05:54:18;;;;;;;22.40;16.73;;;;;;;13.24;100.00;103172.88;5360354;26;20238;-67
2024/04/12 05:56:47;;;;;;;20.37;15.00;;;;;;;13.18;100.00;103166.28;5353321;26;21187;-67
2024/04/12 05:59:14;;;;;;;19.67;14.43;;;;;;;13.25;100.00;103194.31;5346069;26;20504;-67
2024/04/12 06:01:43;;;;;;;21.17;14.30;;;;;;;13.24;100.00;103159.41;5352221;26;20813;-66
2024/04/12 06:04:13;;;;;;;19.97;14.30;;;;;;;13.27;100.00;103149.16;5349503;26;21133;-67
2024/04/12 06:06:41;;;;;;;16.83;12.53;;;;;;;12.43;100.00;103017.84;5353728;26;20854;-67
2024/04/12 06:09:06;;;;;;;17.30;13.40;;;;;;;13.27;100.00;103146.47;5355466;26;20476;-66
2024/04/12 06:11:34;;;;;;;18.73;13.50;;;;;;;13.05;100.00;103120.91;5359839;26;20488;-67
2024/04/12 06:14:01;;;;;;;16.73;12.97;;;;;;;13.14;100.00;103143.34;5359937;26;20470;-67
2024/04/12 06:16:27;;;;;;;18.13;13.40;;;;;;;13.18;100.00;103150.09;5353634;26;21089;-67
2024/04/12 06:18:52;;;;;;;18.70;14.00;;;;;;;13.08;100.00;103157.47;5352046;26;20477;-67
2024/04/12 06:21:18;;;;;;;19.37;13.50;;;;;;;12.95;100.00;103147.09;5353637;26;20359;-67
2024/04/12 06:23:44;;;;;;;20.90;13.03;;;;;;;13.06;100.00;103157.63;5356428;26;20342;-67
2024/04/12 06:26:09;;;;;;;15.77;11.27;;;;;;;13.16;100.00;103162.03;5358698;26;20778;-67
2024/04/12 06:28:37;;;;;;;19.43;11.70;;;;;;;13.02;100.00;103150.03;5353700;26;20238;-67
2024/04/12 06:31:03;;;;;;;17.97;10.83;;;;;;;13.00;100.00;103135.84;5382649;26;20250;-65
2024/04/12 06:33:28;;;;;;;14.70;9.00;;;;;;;12.98;100.00;103151.31;5376103;26;20475;-66
2024/04/12 06:36:04;;;;;;;13.23;9.57;;;;;;;13.02;100.00;103147.34;5338383;26;20906;-67
2024/04/12 06:38:33;;;;;;;16.90;8.93;;;;;;;13.19;100.00;103168.00;5338373;26;20239;-67
2024/04/12 06:41:10;;;;;;;13.57;8.77;;;;;;;13.11;100.00;103165.25;5355361;26;20532;-66
2024/04/12 06:43:37;;;;;;;13.00;8.83;;;;;;;13.11;100.00;103173.31;5357846;26;21366;-67
2024/04/12 06:46:11;;;;;;;14.57;9.10;;;;;;;13.08;100.00;103169.09;5351891;26;20591;-67
2024/04/12 06:48:40;;;;;;;18.03;11.53;;;;;;;12.94;100.00;103150.81;5358323;26;21053;-67
2024/04/12 06:51:11;;;;;;;15.60;10.90;;;;;;;13.06;100.00;103170.25;5363594;26;20487;-67
2024/04/12 06:53:46;;;;;;;16.17;9.87;;;;;;;13.12;100.00;103191.16;5359407;26;20464;-67
2024/04/12 06:56:17;;;;;;;15.90;8.80;;;;;;;13.08;100.00;103187.09;5348592;26;20531;-67
2024/04/12 06:58:43;;;;;;;16.37;8.87;;;;;;;12.97;100.00;103182.81;5361027;26;20506;-67
2024/04/12 07:01:10;;;;;;;15.30;10.17;;;;;;;12.91;100.00;103178.06;5358969;26;20491;-67
2024/04/12 07:03:36;;;;;;;13.23;9.00;;;;;;;13.07;100.00;103197.00;5354784;26;21066;-67
2024/04/12 07:06:03;;;;;;;14.63;9.30;;;;;;;12.56;100.00;103125.97;5362605;26;20528;-67
2024/04/12 07:08:29;;;;;;;15.40;9.40;;;;;;;12.82;100.00;103176.31;5358688;26;20571;-67
2024/04/12 07:10:56;;;;;;;15.90;9.80;;;;;;;12.86;100.00;103188.44;5355060;26;21573;-66
2024/04/12 07:13:25;;;;;;;14.47;10.20;;;;;;;12.95;100.00;103203.66;5356647;26;20587;-66
2024/04/12 07:15:51;;;;;;;16.20;9.10;;;;;;;13.05;100.00;103235.94;5350714;26;20556;-67
2024/04/12 07:18:17;;;;;;;17.73;9.90;;;;;;;13.03;100.00;103230.69;5358424;26;20472;-66
2024/04/12 07:20:45;;;;;;;14.83;9.00;;;;;;;12.77;100.00;103184.84;5350395;26;20749;-66
2024/04/12 07:23:15;;;;;;;15.53;10.57;;;;;;;13.08;100.00;103232.91;5354437;26;20475;-67
2024/04/12 07:25:47;;;;;;;14.13;9.20;;;;;;;12.95;100.00;103209.06;5358404;26;20480;-66
2024/04/12 07:28:18;;;;;;;15.77;9.90;;;;;;;12.79;100.00;103187.41;5361945;26;20476;-66
2024/04/12 07:30:46;;;;;;;17.53;8.83;;;;;;;13.15;100.00;103241.22;5360693;26;20465;-67
2024/04/12 07:33:12;;;;;;;17.17;10.00;;;;;;;13.21;100.00;103230.63;5357374;26;20472;-67
2024/04/12 07:35:48;;;;;;;15.20;9.97;;;;;;;13.16;100.00;103243.72;5358194;26;20480;-67
2024/04/12 07:38:14;;;;;;;15.17;9.60;;;;;;;13.02;100.00;103212.00;5351323;26;20477;-67
2024/04/12 07:40:41;;;;;;;16.43;10.37;;;;;;;13.14;100.00;103229.59;5349815;26;20535;-67
2024/04/12 07:43:11;;;;;;;16.73;9.53;;;;;;;12.86;100.00;103189.28;5344754;26;20480;-67
2024/04/12 07:45:40;;;;;;;13.93;9.40;;;;;;;13.23;100.00;103235.88;5339334;26;21329;-67
2024/04/12 07:50:59;;;;;;;15.10;10.20;;;;;;;13.20;100.00;103226.25;5352119;26;20526;-66
2024/04/12 07:53:25;;;;;;;14.70;9.70;;;;;;;13.28;100.00;103230.91;5350662;26;20517;-67
2024/04/12 07:56:00;;;;;;;22.37;10.97;;;;;;;13.13;100.00;103209.00;5354905;26;20967;-67
2024/04/12 07:58:27;;;;;;;16.07;10.50;;;;;;;13.27;100.00;103234.56;5358963;26;20475;-67
2024/04/12 08:01:09;;;;;;;18.40;11.97;;;;;;;13.10;100.00;103222.81;5356240;26;20659;-67
2024/04/12 08:03:38;;;;;;;18.60;11.00;;;;;;;13.14;100.00;103220.66;5347008;26;20613;-67
2024/04/12 08:06:04;;;;;;;17.43;11.87;;;;;;;13.25;100.00;103226.66;5350356;26;20589;-66
2024/04/12 08:08:31;;;;;;;18.43;11.83;;;;;;;13.10;100.00;103193.16;5349029;26;20980;-67
2024/04/12 08:11:31;;;;;;;19.50;11.50;;;;;;;13.34;100.00;103225.72;5357373;26;20873;-67
2024/04/12 08:14:05;;;;;;;18.83;12.17;;;;;;;13.34;100.00;103209.53;5350489;26;20648;-67
2024/04/12 08:16:35;;;;;;;23.97;12.80;;;;;;;13.45;100.00;103210.25;5355508;26;20555;-67
2024/04/12 08:19:03;;;;;;;19.97;12.47;;;;;;;13.51;100.00;103207.78;5358402;26;20468;-67
2024/04/12 08:21:31;;;;;;;19.80;13.20;;;;;;;13.62;100.00;103214.72;5352632;26;20542;-66
2024/04/12 08:23:57;;;;;;;22.40;13.83;;;;;;;13.38;100.00;103161.53;5358183;26;20481;-66
2024/04/12 08:26:27;;;;;;;19.90;12.77;;;;;;;13.60;100.00;103188.91;5354313;26;20887;-67
2024/04/12 08:28:53;;;;;;;19.77;13.10;;;;;;;13.71;100.00;103189.50;5351322;26;20345;-67
2024/04/12 08:31:19;;;;;;;19.57;12.07;;;;;;;13.72;100.00;103160.69;5385649;26;20472;-67
2024/04/12 08:33:45;;;;;;;17.87;12.53;;;;;;;13.89;100.00;103180.47;5353362;26;22722;-67
2024/04/12 08:36:16;;;;;;;22.17;12.43;;;;;;;14.02;100.00;103162.78;5361153;26;20253;-66
2024/04/12 08:38:58;;;;;;;16.70;11.87;;;;;;;14.16;100.00;103157.75;5349959;26;20865;-66
2024/04/12 08:41:24;;;;;;;17.73;11.07;;;;;;;14.27;100.00;103141.25;5354931;26;20478;-67
2024/04/12 08:43:58;;;;;;;15.27;11.23;;;;;;;14.20;100.00;103111.38;5353588;26;20480;-67
2024/04/12 08:46:28;;;;;;;17.50;11.60;;;;;;;14.36;100.00;103129.44;5357246;26;20477;-67
2024/04/12 08:48:55;;;;;;;16.33;11.30;;;;;;;14.47;100.00;103136.38;5351716;26;20559;-67
2024/04/12 08:51:22;;;;;;;18.53;10.80;;;;;;;14.39;100.00;103134.50;5349788;26;20619;-66
2024/04/12 08:53:55;;;;;;;17.83;10.70;;;;;;;14.44;100.00;103131.31;5345689;26;20524;-67
2024/04/12 08:56:28;;;;;;;16.47;11.30;;;;;;;14.33;100.00;103093.84;5349951;26;20476;-66
2024/04/12 08:58:59;;;;;;;15.67;9.47;;;;;;;14.73;100.00;103124.56;5343148;26;20519;-67
2024/04/12 09:01:25;;;;;;;15.67;9.90;;;;;;;14.85;100.00;103131.31;5353551;26;21094;-67
2024/04/12 09:03:58;;;;;;;15.60;9.80;;;;;;;14.94;100.00;103124.88;5342552;26;20582;-67
2024/04/12 09:06:24;;;;;;;14.70;9.13;;;;;;;15.14;100.00;103128.03;5351677;26;21088;-67
2024/04/12 09:08:53;;;;;;;13.70;8.80;;;;;;;15.27;100.00;103140.97;5349061;26;20480;-67
2024/04/12 09:11:25;;;;;;;11.50;7.77;;;;;;;15.22;100.00;103154.19;5348414;26;20582;-66
2024/04/12 09:13:54;;;;;;;12.87;7.87;;;;;;;15.23;100.00;103134.25;5356183;26;20531;-67
2024/04/12 09:16:19;;;;;;;10.57;6.17;;;;;;;15.22;100.00;103114.50;5349103;26;20481;-67
2024/04/12 09:18:51;;;;;;;11.43;7.00;;;;;;;15.38;100.00;103156.84;5353537;26;20527;-66
2024/04/12 09:21:36;;;;;;;12.47;6.30;;;;;;;15.27;100.00;103147.22;5359079;26;20238;-67
2024/04/12 09:24:09;;;;;;;13.73;6.40;;;;;;;14.82;100.00;103047.91;5347561;26;20468;-67
2024/04/12 09:26:55;;;;;;;10.60;5.90;;;;;;;15.24;100.00;103076.44;5351017;26;20480;-66
2024/04/12 09:29:27;;;;;;;10.73;6.50;;;;;;;15.73;100.00;103058.13;5354614;26;20518;-69
2024/04/12 09:34:42;;;;;;;11.07;6.20;;;;;;;16.01;100.00;102925.81;5352894;26;20827;-69
2024/04/12 09:40:40;;;;;;;10.70;4.30;;;;;;;16.05;100.00;102744.91;5346493;26;20973;-69
2024/04/12 09:43:25;;;;;;;11.73;5.20;;;;;;;15.85;100.00;102641.81;5357645;26;20476;-69
2024/04/12 09:46:05;;;;;;;12.80;4.70;;;;;;;15.46;100.00;102542.94;5354921;26;20489;-68
2024/04/12 10:38:59;;;;;;;11.40;3.03;;;;;;;15.78;100.00;102689.63;5351674;26;20603;-69
2024/04/12 10:41:35;;;;;;;10.27;2.80;;;;;;;17.05;100.00;102838.19;5355044;26;20543;-69
2024/04/12 10:44:03;;;;;;;9.43;2.73;;;;;;;16.93;100.00;102808.88;5350234;26;20273;-69
2024/04/12 10:46:28;;;;;;;8.77;2.40;;;;;;;17.24;100.00;102823.13;5354134;26;20586;-69
2024/04/12 10:48:55;;;;;;;9.70;2.80;;;;;;;17.19;100.00;102828.34;5349734;26;21236;-69
2024/04/12 10:51:23;;;;;;;6.63;2.23;;;;;;;17.11;100.00;102818.44;5354126;26;20320;-69
2024/04/12 10:53:51;;;;;;;7.13;2.30;;;;;;;17.16;100.00;102816.00;5351061;26;20481;-70
2024/04/12 10:56:19;;;;;;;14.10;2.40;;;;;;;17.02;100.00;102814.19;5350554;26;21006;-69
2024/04/12 10:58:56;;;;;;;8.80;2.60;;;;;;;16.47;100.00;102725.22;5337027;26;20848;-70
2024/04/12 11:01:23;;;;;;;7.30;2.10;;;;;;;17.08;100.00;102802.56;5355929;26;20473;-70
2024/04/12 11:03:56;;;;;;;13.50;2.20;;;;;;;17.12;100.00;102777.56;5354559;26;20476;-69
2024/04/12 11:06:31;;;;;;;9.23;2.70;;;;;;;16.85;100.00;102800.88;5328056;26;20533;-70
2024/04/12 11:09:04;;;;;;;12.47;3.40;;;;;;;16.80;100.00;102783.53;5345235;26;20472;-70
2024/04/12 11:11:37;;;;;;;11.07;3.03;;;;;;;16.88;100.00;102800.50;5360947;26;20587;-70
2024/04/12 11:14:06;;;;;;;7.83;2.33;;;;;;;16.69;100.00;102768.56;5354555;26;20625;-70
2024/04/12 11:33:31;;;;;;;9.50;2.87;;;;;;;17.31;100.00;102765.22;5355792;26;20528;-70
2024/04/12 11:35:59;;;;;;;8.40;3.20;;;;;;;17.57;100.00;102771.88;5355265;26;20538;-69
2024/04/12 11:38:27;;;;;;;10.63;2.80;;;;;;;17.27;100.00;102735.97;5353932;26;21103;-69
2024/04/12 11:40:56;;;;;;;9.40;2.60;;;;;;;17.77;100.00;102761.97;5354275;26;20488;-70
2024/04/12 11:43:22;;;;;;;10.40;2.40;;;;;;;17.63;100.00;102776.50;5356374;26;20532;-69
2024/04/12 11:45:48;;;;;;;10.17;2.30;;;;;;;17.62;100.00;102785.69;5349913;26;20470;-69
2024/04/12 11:48:14;;;;;;;7.43;1.80;;;;;;;17.45;100.00;102770.75;5342802;26;20488;-69
2024/04/12 11:50:43;;;;;;;7.97;2.10;;;;;;;17.60;100.00;102775.03;5354779;26;20605;-69
2024/04/12 11:53:10;;;;;;;13.60;2.60;;;;;;;17.36;100.00;102751.91;5352537;26;20255;-69
2024/04/12 11:55:40;;;;;;;10.07;1.90;;;;;;;17.48;100.00;102752.19;5355505;26;20468;-69
2024/04/12 11:58:08;;;;;;;12.23;2.83;;;;;;;17.38;100.00;102728.13;5340611;26;21383;-69
2024/04/12 12:00:37;;;;;;;8.73;1.80;;;;;;;17.46;100.00;102767.00;5348255;26;20536;-69
2024/04/12 12:03:03;;;;;;;12.90;2.23;;;;;;;17.69;100.00;102767.56;5356572;26;20524;-69
2024/04/12 12:05:29;;;;;;;11.50;2.10;;;;;;;17.74;100.00;102788.69;5358331;26;20461;-69
2024/04/12 12:07:54;;;;;;;10.17;2.30;;;;;;;17.58;100.00;102766.22;5348173;26;20535;-69
2024/04/12 12:10:20;;;;;;;9.23;1.83;;;;;;;17.51;100.00;102791.66;5340486;26;20295;-69
2024/04/12 12:12:45;;;;;;;10.10;2.20;;;;;;;17.59;100.00;102786.94;5345684;26;20244;-69
2024/04/12 12:15:14;;;;;;;10.77;3.17;;;;;;;17.50;100.00;102785.41;5342551;26;20238;-69
2024/04/12 12:17:40;;;;;;;9.47;2.20;;;;;;;17.34;100.00;102775.66;5347250;26;20286;-69
2024/04/12 12:20:06;;;;;;;10.07;1.70;;;;;;;17.18;100.00;102748.81;5360100;26;20652;-71
2024/04/12 12:22:32;;;;;;;10.03;2.30;;;;;;;17.31;100.00;102773.34;5357384;26;20546;-69
2024/04/12 12:24:58;;;;;;;10.70;1.90;;;;;;;17.53;100.00;102789.56;5357170;26;21022;-71
2024/04/12 12:27:23;;;;;;;10.67;2.80;;;;;;;17.24;100.00;102788.75;5390374;26;20257;-69
2024/04/12 12:29:51;;;;;;;15.60;2.50;;;;;;;17.46;100.00;102775.97;5357449;26;20254;-71
2024/04/12 12:32:19;;;;;;;14.07;2.50;;;;;;;17.43;100.00;102795.34;5356940;26;20374;-70
2024/04/12 12:34:46;;;;;;;10.83;3.37;;;;;;;17.42;100.00;102754.88;5358013;26;20549;-70